Skip Navigation Links
NOAA logo - Click to go to the NOAA homepage
NOAA's National Weather Service
Alaska Aviation Weather Unit
  NWS logo - Click to go to the NWS homepage
Left Navbar Graphic     21 AKDT = 05 GMT

   
NOAA is celebrating 200 years of science, service, and stewardship. Visit the NOAA 200th celebration Web site to learn more.
USA.gov is the U.S. Government's official Web portal to all Federal, state and local government Web resources and services.
Facebook
NWS on Facebook

AAWU Home :: Display TAF Add Bookmark
METAR PAEG 262353Z AUTO 28009KT 10SM BKN070 BKN090 08/M01 A2952 RMK AO2
     SLP005 T00781011 10094 20044 55000 TSNO=

METAR PAEG 270053Z AUTO 28010G16KT 10SM CLR 07/M01 A2953 RMK AO2
 SLP009 T00721011 TSNO=

METAR PAEG 270153Z AUTO 28009G16KT 10SM FEW044 06/M01 A2955 RMK AO2
 SLP014 T00611006 TSNO=

METAR PAEG 270253Z AUTO 29009G15KT 10SM OVC044 05/M01 A2957 RMK AO2
 SLP021 T00501006 53014 TSNO=

METAR PAEG 270353Z AUTO 28008KT 10SM FEW036 OVC043 04/M01 A2958 RMK AO2
     SLP025 T00391011 TSNO=

METAR PAEG 270453Z AUTO VRB05KT 10SM BKN024 OVC044 03/M01 A2960 RMK
 AO2 SLP030 T00331011 TSNO=


NOAA's National Weather Service
Alaska Aviation Weather Unit
6930 Sand Lake Road
Anchorage, AK 99502-1845
Disclaimer
Credits
Glossary
Privacy Policy
About Us
Career Opportunities
Contact AAWU Internet Services Site last modified: April, 17th 2012